Time;durP1;ratioP1;P1;durP2;ratioP2;P2;SDS_P1;SDS_P2;PMS_P1;PMS_P2;Temp;Humidity;BMP_temperature;BMP_pressure;BME280_temperature;BME280_humidity;BME280_pressure;Samples;Min_cycle;Max_cycle;Signal;HPM_P1;HPM_P2
2021/03/06 00:01:12;;;;;;;25.42;16.25;;;;;;;12.02;69.21;101202.31;4860518;29;20041;-73
2021/03/06 00:03:57;;;;;;;26.00;16.40;;;;;;;12.14;68.76;101203.88;4860264;29;20092;-73
2021/03/06 00:06:43;;;;;;;24.88;16.13;;;;;;;12.46;66.85;101206.84;4860860;29;20045;-73
2021/03/06 00:09:29;;;;;;;20.60;14.93;;;;;;;12.46;67.88;101212.09;4861096;29;20033;-73
2021/03/06 00:12:15;;;;;;;22.58;15.27;;;;;;;12.33;68.93;101210.56;4861783;29;20048;-74
2021/03/06 00:15:00;;;;;;;24.73;16.08;;;;;;;12.05;71.33;101214.56;4861792;29;20034;-74
2021/03/06 00:17:46;;;;;;;25.15;16.48;;;;;;;11.65;74.13;101210.78;4861258;29;20093;-74
2021/03/06 00:20:32;;;;;;;22.65;16.00;;;;;;;11.82;75.08;101203.50;4873996;29;20439;-74
2021/03/06 00:23:18;;;;;;;27.85;16.83;;;;;;;11.46;77.49;101210.13;4872665;29;20036;-74
2021/03/06 00:26:03;;;;;;;25.60;16.88;;;;;;;11.50;77.90;101209.19;4861348;29;20380;-74
2021/03/06 00:28:49;;;;;;;22.92;16.50;;;;;;;10.94;82.29;101208.13;4861248;29;20033;-73
2021/03/06 00:31:36;;;;;;;27.85;16.73;;;;;;;11.28;80.95;101215.59;4861033;29;20457;-74
2021/03/06 00:34:22;;;;;;;25.60;16.48;;;;;;;11.35;80.91;101216.38;4862871;29;20033;-74
2021/03/06 00:37:08;;;;;;;24.17;16.52;;;;;;;11.38;80.40;101221.59;4865065;29;20021;-74
2021/03/06 00:39:54;;;;;;;25.95;17.08;;;;;;;10.90;81.71;101212.56;4864081;29;20053;-74
2021/03/06 00:42:40;;;;;;;27.83;16.70;;;;;;;11.32;80.57;101219.91;4864318;29;20033;-74
2021/03/06 00:45:25;;;;;;;24.08;16.42;;;;;;;11.50;79.20;101221.44;4864460;29;20098;-73
2021/03/06 00:48:11;;;;;;;23.25;14.90;;;;;;;11.49;78.57;101228.44;4864725;29;20100;-73
2021/03/06 00:50:57;;;;;;;22.48;15.18;;;;;;;11.55;78.38;101220.50;4864231;29;20022;-73
2021/03/06 00:53:43;;;;;;;22.88;15.68;;;;;;;11.31;79.89;101219.94;4863809;29;20108;-72
2021/03/06 00:56:28;;;;;;;22.40;15.52;;;;;;;11.54;80.69;101221.34;4876549;29;20427;-73
2021/03/06 00:59:14;;;;;;;25.60;16.10;;;;;;;11.63;79.78;101213.41;4863054;29;20060;-73
2021/03/06 01:02:00;;;;;;;23.45;15.60;;;;;;;11.60;80.33;101218.69;4863736;29;20037;-73
2021/03/06 01:04:46;;;;;;;24.98;15.70;;;;;;;11.58;82.36;101215.19;4863579;29;20116;-75
2021/03/06 01:07:31;;;;;;;24.17;15.90;;;;;;;11.48;85.10;101223.19;4863567;29;20108;-73
2021/03/06 01:10:20;;;;;;;23.08;15.80;;;;;;;11.72;84.85;101225.53;4875852;29;20044;-73
2021/03/06 01:13:07;;;;;;;26.83;16.15;;;;;;;11.94;84.45;101222.56;4850375;29;20022;-73
2021/03/06 01:15:53;;;;;;;26.85;15.55;;;;;;;11.59;87.52;101227.44;4863956;29;20463;-73
2021/03/06 01:18:39;;;;;;;24.88;15.77;;;;;;;11.88;86.90;101224.41;4863781;29;20072;-73
2021/03/06 01:21:25;;;;;;;26.23;16.85;;;;;;;11.53;88.91;101231.91;4863662;29;20047;-74
2021/03/06 01:24:10;;;;;;;26.85;16.67;;;;;;;11.65;88.48;101227.38;4863516;29;20428;-74
2021/03/06 01:26:56;;;;;;;26.33;15.30;;;;;;;11.28;90.84;101228.69;4863840;29;20363;-74
2021/03/06 01:29:42;;;;;;;24.80;17.00;;;;;;;11.50;91.07;101229.31;4863414;29;20112;-74
2021/03/06 01:32:28;;;;;;;26.38;16.83;;;;;;;11.71;90.59;101226.41;4863935;29;20029;-74
2021/03/06 01:35:13;;;;;;;27.55;17.38;;;;;;;11.66;90.45;101231.72;4863290;29;20033;-74
2021/03/06 01:37:59;;;;;;;26.88;16.50;;;;;;;11.40;93.35;101238.16;4863348;29;20025;-73
2021/03/06 01:40:45;;;;;;;26.35;16.63;;;;;;;11.42;92.51;101244.28;4862587;29;20037;-73
2021/03/06 01:43:31;;;;;;;28.92;17.83;;;;;;;11.60;92.17;101254.53;4863275;29;20030;-73
2021/03/06 01:46:16;;;;;;;26.40;15.98;;;;;;;11.79;91.76;101250.81;4863116;29;20029;-74
2021/03/06 01:49:02;;;;;;;25.38;16.42;;;;;;;11.56;92.31;101251.09;4863888;29;20026;-74
2021/03/06 01:51:48;;;;;;;27.98;17.00;;;;;;;11.69;92.46;101247.44;4863405;29;20029;-74
2021/03/06 01:54:34;;;;;;;24.38;17.20;;;;;;;11.82;92.36;101250.78;4863131;29;20473;-74
2021/03/06 01:57:20;;;;;;;28.95;18.25;;;;;;;11.61;92.90;101257.16;4863343;29;20052;-74
2021/03/06 02:00:07;;;;;;;30.13;18.17;;;;;;;11.63;94.36;101258.03;4862522;29;20030;-74
2021/03/06 02:02:53;;;;;;;24.80;17.30;;;;;;;12.08;91.63;101254.75;4862462;29;20061;-74
2021/03/06 02:05:39;;;;;;;28.48;17.48;;;;;;;11.76;93.13;101262.22;4862761;29;20408;-74
2021/03/06 02:08:25;;;;;;;29.92;17.48;;;;;;;11.19;98.25;101254.16;4863011;29;20037;-74
2021/03/06 02:11:11;;;;;;;26.63;17.80;;;;;;;11.64;96.52;101254.50;4861874;29;20097;-73
2021/03/06 02:14:11;;;;;;;29.15;18.35;;;;;;;11.41;98.04;101269.63;4863323;29;20466;-73
2021/03/06 02:17:09;;;;;;;26.10;18.63;;;;;;;11.17;100.00;101262.03;4861526;29;20029;-72
2021/03/06 02:20:17;;;;;;;28.13;18.05;;;;;;;11.39;99.83;101262.66;4862804;29;20057;-73
2021/03/06 02:23:36;;;;;;;28.98;18.50;;;;;;;11.58;99.00;101265.03;4862170;29;20132;-73
2021/03/06 02:26:52;;;;;;;28.58;18.45;;;;;;;11.61;99.94;101269.44;4862810;29;20053;-73
2021/03/06 02:29:38;;;;;;;27.50;18.80;;;;;;;11.40;100.00;101267.91;4862289;29;20102;-73
2021/03/06 02:32:29;;;;;;;29.73;17.60;;;;;;;11.34;100.00;101270.63;4862957;29;20128;-73
2021/03/06 02:35:28;;;;;;;29.73;18.85;;;;;;;11.61;100.00;101279.94;4861277;29;20041;-73
2021/03/06 02:38:15;;;;;;;32.30;19.48;;;;;;;11.26;100.00;101274.19;4862631;29;20021;-73
2021/03/06 02:41:01;;;;;;;30.13;18.80;;;;;;;11.14;100.00;101280.47;4874303;29;20041;-73
2021/03/06 02:43:51;;;;;;;31.00;19.35;;;;;;;11.48;100.00;101288.78;4861898;29;20431;-73
2021/03/06 02:46:38;;;;;;;34.47;19.40;;;;;;;11.51;100.00;101292.28;4862092;29;20040;-73
2021/03/06 02:49:24;;;;;;;29.35;19.95;;;;;;;11.37;100.00;101299.41;4861900;29;20037;-72
2021/03/06 02:52:10;;;;;;;27.55;18.65;;;;;;;11.69;100.00;101313.06;4862341;29;20069;-73
2021/03/06 02:54:56;;;;;;;28.50;19.30;;;;;;;11.66;100.00;101325.38;4862071;29;20052;-73
2021/03/06 02:58:12;;;;;;;31.48;20.17;;;;;;;11.57;100.00;101330.69;4861704;29;20363;-73
2021/03/06 03:01:05;;;;;;;33.45;20.38;;;;;;;11.45;100.00;101342.19;4862483;29;20044;-73
2021/03/06 03:04:35;;;;;;;34.22;19.75;;;;;;;11.47;100.00;101356.16;4874145;29;20114;-73
2021/03/06 03:07:45;;;;;;;31.02;19.95;;;;;;;11.62;100.00;101371.75;4841850;29;20074;-73
2021/03/06 03:10:34;;;;;;;31.05;20.13;;;;;;;11.55;100.00;101375.31;4861973;29;20025;-74
2021/03/06 03:13:40;;;;;;;34.35;21.60;;;;;;;11.79;100.00;101367.19;4861993;29;20026;-74
2021/03/06 03:16:34;;;;;;;33.67;20.25;;;;;;;11.31;100.00;101386.06;4862346;29;20045;-74
2021/03/06 03:19:36;;;;;;;29.48;19.95;;;;;;;11.41;100.00;101392.09;4863166;29;20065;-74
2021/03/06 03:22:25;;;;;;;33.63;20.48;;;;;;;11.36;100.00;101399.13;4861815;29;20025;-74
2021/03/06 03:25:13;;;;;;;32.58;21.50;;;;;;;11.14;100.00;101397.59;4862399;29;20363;-74
2021/03/06 03:28:00;;;;;;;32.65;21.52;;;;;;;11.27;100.00;101394.84;4863030;29;20048;-74
2021/03/06 03:30:46;;;;;;;29.35;20.33;;;;;;;11.11;100.00;101402.88;4862471;29;20335;-74
2021/03/06 03:33:34;;;;;;;34.03;20.23;;;;;;;11.09;100.00;101392.38;4861941;29;20363;-75
2021/03/06 03:36:23;;;;;;;31.17;20.00;;;;;;;11.03;100.00;101405.56;4861016;29;20523;-74
2021/03/06 03:39:09;;;;;;;30.55;20.20;;;;;;;11.18;100.00;101408.06;4861656;29;20124;-74
2021/03/06 03:41:56;;;;;;;32.70;20.58;;;;;;;10.56;100.00;101406.81;4861565;29;20477;-74
2021/03/06 03:44:42;;;;;;;31.25;20.83;;;;;;;10.17;100.00;101405.28;4861257;29;20042;-74
2021/03/06 03:47:28;;;;;;;29.70;19.63;;;;;;;9.55;100.00;101409.81;4861333;29;20038;-74
2021/03/06 03:50:16;;;;;;;30.90;20.00;;;;;;;9.18;100.00;101431.69;4862139;29;20026;-74
2021/03/06 03:53:02;;;;;;;28.73;18.33;;;;;;;8.47;100.00;101425.50;4860098;29;20040;-74
2021/03/06 03:55:48;;;;;;;29.73;19.50;;;;;;;8.68;100.00;101431.63;4861976;29;20098;-73
2021/03/06 03:58:34;;;;;;;34.83;19.75;;;;;;;8.99;100.00;101435.16;4860073;29;20037;-74
2021/03/06 04:01:20;;;;;;;30.52;19.60;;;;;;;9.12;100.00;101439.50;4860974;29;20345;-74
2021/03/06 04:04:07;;;;;;;34.83;20.13;;;;;;;8.72;100.00;101442.97;4860606;29;20049;-73
2021/03/06 04:06:54;;;;;;;35.33;20.48;;;;;;;8.20;100.00;101447.13;4861676;29;20056;-74
2021/03/06 04:09:39;;;;;;;32.45;19.95;;;;;;;8.11;100.00;101447.13;4865261;29;20034;-74
2021/03/06 04:12:25;;;;;;;33.97;20.25;;;;;;;8.51;100.00;101442.91;4864259;29;20033;-74
2021/03/06 04:15:12;;;;;;;32.42;19.08;;;;;;;8.74;100.00;101449.06;4865475;29;20041;-73
2021/03/06 04:17:58;;;;;;;31.05;18.90;;;;;;;9.03;100.00;101444.72;4863873;29;20183;-73
2021/03/06 04:20:44;;;;;;;31.70;20.55;;;;;;;8.42;100.00;101450.75;4864770;29;20026;-73
2021/03/06 04:23:29;;;;;;;30.50;20.60;;;;;;;8.53;100.00;101459.47;4864490;29;20026;-74
2021/03/06 04:26:15;;;;;;;33.45;22.30;;;;;;;8.32;100.00;101460.28;4864943;29;20029;-74
2021/03/06 04:29:01;;;;;;;35.70;21.85;;;;;;;7.81;100.00;101477.41;4863351;29;20066;-74
2021/03/06 04:31:48;;;;;;;31.75;21.20;;;;;;;7.71;100.00;101483.41;4866636;29;20065;-73
2021/03/06 04:34:34;;;;;;;32.92;20.60;;;;;;;7.51;100.00;101483.28;4878930;29;20143;-74
2021/03/06 04:37:19;;;;;;;28.70;18.83;;;;;;;7.85;100.00;101489.59;4865821;29;20022;-74
2021/03/06 04:40:12;;;;;;;31.02;18.40;;;;;;;7.61;100.00;101489.44;4864011;29;20385;-74
2021/03/06 04:42:58;;;;;;;28.38;17.35;;;;;;;7.67;100.00;101486.91;4864462;29;20136;-74
2021/03/06 04:45:44;;;;;;;32.80;17.67;;;;;;;7.72;100.00;101491.25;4864454;29;20120;-73
2021/03/06 04:48:30;;;;;;;25.85;17.35;;;;;;;7.90;100.00;101519.19;4864427;29;20076;-74
2021/03/06 04:51:15;;;;;;;29.30;17.50;;;;;;;7.25;100.00;101536.09;4864404;29;20034;-74
2021/03/06 04:54:02;;;;;;;28.75;17.92;;;;;;;7.06;100.00;101549.78;4864182;29;20029;-74
2021/03/06 04:56:50;;;;;;;29.02;18.23;;;;;;;7.11;100.00;101535.94;4864643;29;20040;-74
2021/03/06 04:59:35;;;;;;;28.88;17.77;;;;;;;7.08;100.00;101548.94;4862846;29;20092;-74
2021/03/06 05:02:21;;;;;;;31.27;18.45;;;;;;;7.48;100.00;101544.97;4864148;29;20057;-74
2021/03/06 05:05:08;;;;;;;30.00;17.77;;;;;;;7.47;100.00;101543.25;4863680;29;20504;-74
2021/03/06 05:07:53;;;;;;;28.00;17.38;;;;;;;7.91;100.00;101549.63;4864339;29;20044;-74
2021/03/06 05:10:39;;;;;;;24.75;16.77;;;;;;;7.21;100.00;101562.97;4864685;29;20034;-74
2021/03/06 05:13:25;;;;;;;25.10;16.27;;;;;;;7.29;100.00;101557.00;4864262;29;20439;-73
2021/03/06 05:16:11;;;;;;;25.20;15.18;;;;;;;7.39;100.00;101573.59;4863772;29;20037;-73
2021/03/06 05:18:56;;;;;;;24.98;14.60;;;;;;;7.40;100.00;101572.72;4862631;29;20182;-73
2021/03/06 05:21:42;;;;;;;29.45;14.25;;;;;;;7.47;100.00;101574.53;4863834;29;20029;-73
2021/03/06 05:24:28;;;;;;;29.73;13.65;;;;;;;7.37;100.00;101593.53;4862963;29;20029;-73
2021/03/06 05:27:14;;;;;;;23.83;12.82;;;;;;;7.50;100.00;101600.59;4863717;29;20040;-74
2021/03/06 05:30:00;;;;;;;26.85;12.90;;;;;;;7.43;100.00;101604.03;4875788;29;20029;-74
2021/03/06 05:32:46;;;;;;;22.20;12.23;;;;;;;7.61;100.00;101615.50;4862726;29;20048;-73
2021/03/06 05:35:32;;;;;;;18.00;11.82;;;;;;;7.73;100.00;101615.63;4863314;29;20049;-74
2021/03/06 05:38:17;;;;;;;17.92;11.23;;;;;;;7.58;100.00;101636.34;4863580;29;20029;-74
2021/03/06 05:41:03;;;;;;;16.88;10.18;;;;;;;6.99;100.00;101634.84;4863209;29;20029;-74
2021/03/06 05:43:50;;;;;;;17.67;10.23;;;;;;;7.22;100.00;101648.13;4863648;29;20040;-74
2021/03/06 05:46:37;;;;;;;13.80;9.77;;;;;;;7.34;100.00;101650.84;4862518;29;20052;-74
2021/03/06 05:49:22;;;;;;;17.27;9.75;;;;;;;6.90;100.00;101652.06;4863696;29;20040;-73
2021/03/06 05:52:09;;;;;;;16.60;8.68;;;;;;;7.04;100.00;101660.94;4864048;29;20124;-75
2021/03/06 05:54:56;;;;;;;12.90;8.35;;;;;;;6.87;100.00;101659.88;4862547;29;20030;-73
2021/03/06 05:57:42;;;;;;;14.52;8.98;;;;;;;7.06;100.00;101674.84;4863055;29;20066;-73
2021/03/06 06:00:29;;;;;;;13.30;8.55;;;;;;;7.07;100.00;101681.84;4862693;29;20037;-75
2021/03/06 06:03:17;;;;;;;15.80;9.00;;;;;;;6.92;100.00;101685.13;4862676;29;20372;-73
2021/03/06 06:06:03;;;;;;;16.95;10.05;;;;;;;7.16;100.00;101697.56;4863988;29;20033;-74
2021/03/06 06:08:49;;;;;;;13.73;8.48;;;;;;;6.92;100.00;101713.78;4862975;29;20072;-74
2021/03/06 06:11:59;;;;;;;13.18;8.50;;;;;;;7.13;100.00;101731.41;4863707;29;20044;-77
2021/03/06 06:14:45;;;;;;;13.57;8.25;;;;;;;6.94;100.00;101732.00;4862628;29;20108;-75
2021/03/06 06:17:30;;;;;;;13.18;7.60;;;;;;;7.32;100.00;101734.25;4863722;29;20052;-74
2021/03/06 06:20:16;;;;;;;10.98;7.65;;;;;;;7.57;100.00;101738.00;4864290;29;20029;-74
2021/03/06 06:23:17;;;;;;;12.75;7.38;;;;;;;7.11;100.00;101726.16;4907009;23;20064;-77
2021/03/06 06:26:11;;;;;;;11.25;7.18;;;;;;;6.64;100.00;101729.88;4905351;29;20036;-73
2021/03/06 06:28:57;;;;;;;10.38;6.97;;;;;;;6.72;100.00;101737.78;4918391;29;20028;-74
2021/03/06 06:31:54;;;;;;;11.23;7.07;;;;;;;6.94;100.00;101738.13;4919139;29;20044;-74
2021/03/06 06:34:42;;;;;;;19.85;8.07;;;;;;;7.00;100.00;101759.06;4919055;29;20037;-74
2021/03/06 06:37:29;;;;;;;12.93;6.90;;;;;;;7.34;100.00;101758.63;4906375;29;20024;-73
2021/03/06 06:40:20;;;;;;;10.70;6.45;;;;;;;7.39;100.00;101763.91;4918570;29;20027;-74
2021/03/06 06:43:27;;;;;;;11.27;7.00;;;;;;;7.37;100.00;101787.34;4905954;29;20436;-73
2021/03/06 06:46:34;;;;;;;12.05;6.50;;;;;;;7.40;100.00;101787.34;4919286;29;20104;-79
2021/03/06 06:49:20;;;;;;;11.27;6.05;;;;;;;6.99;100.00;101785.94;4918867;29;20036;-74
2021/03/06 06:52:06;;;;;;;7.15;5.57;;;;;;;7.01;100.00;101797.28;4918860;29;20024;-74
2021/03/06 06:54:56;;;;;;;9.25;6.40;;;;;;;7.14;100.00;101796.56;4906013;29;20383;-74
2021/03/06 06:57:50;;;;;;;12.15;6.28;;;;;;;7.26;100.00;101804.56;4905895;29;20032;-74
2021/03/06 07:00:36;;;;;;;12.18;7.35;;;;;;;7.26;100.00;101814.09;4918488;29;20410;-74
2021/03/06 07:03:22;;;;;;;9.50;7.00;;;;;;;7.17;100.00;101812.25;4919378;29;20118;-76
2021/03/06 07:06:14;;;;;;;11.73;6.45;;;;;;;7.04;100.00;101809.47;4905527;29;20054;-77
2021/03/06 07:09:13;;;;;;;9.13;6.55;;;;;;;6.68;100.00;101816.72;4918911;29;20389;-76
2021/03/06 07:12:15;;;;;;;13.63;6.65;;;;;;;6.67;100.00;101835.81;4918904;29;20396;-74
2021/03/06 07:15:02;;;;;;;8.82;5.85;;;;;;;6.76;100.00;101846.38;4905768;29;20043;-75
2021/03/06 07:18:16;;;;;;;9.77;5.80;;;;;;;6.67;100.00;101844.47;4906469;29;20369;-80
2021/03/06 07:21:08;;;;;;;10.30;6.00;;;;;;;6.75;100.00;101862.84;4918336;29;20032;-73
2021/03/06 07:23:53;;;;;;;10.77;6.40;;;;;;;6.99;100.00;101858.03;4918856;29;20056;-75
2021/03/06 07:26:39;;;;;;;10.50;7.13;;;;;;;7.12;100.00;101857.34;4918433;29;20590;-75
2021/03/06 07:29:27;;;;;;;9.75;6.85;;;;;;;6.85;100.00;101856.94;4918424;29;20039;-74
2021/03/06 07:32:18;;;;;;;9.82;7.00;;;;;;;7.51;100.00;101873.56;4918273;29;20036;-74
2021/03/06 07:35:08;;;;;;;8.25;6.10;;;;;;;6.98;100.00;101872.78;4904376;29;20024;-75
2021/03/06 07:37:58;;;;;;;18.80;6.97;;;;;;;7.18;100.00;101879.16;4917692;29;20426;-74
2021/03/06 07:40:51;;;;;;;12.55;6.88;;;;;;;6.91;100.00;101885.69;4917899;29;20055;-74
2021/03/06 07:43:40;;;;;;;10.57;6.80;;;;;;;6.82;100.00;101901.16;4921735;29;20028;-74
2021/03/06 07:46:27;;;;;;;8.73;6.40;;;;;;;7.10;100.00;101893.81;4922118;29;20032;-75
2021/03/06 07:49:13;;;;;;;10.98;7.00;;;;;;;7.51;100.00;101897.03;4926929;29;20091;-74
2021/03/06 07:52:01;;;;;;;13.52;7.95;;;;;;;7.83;100.00;101913.94;4916885;29;20418;-75
2021/03/06 07:54:47;;;;;;;10.75;6.32;;;;;;;7.62;100.00;101918.88;4908794;29;20040;-74
2021/03/06 07:58:07;;;;;;;11.65;6.13;;;;;;;7.38;100.00;101928.97;4922256;29;20416;-74
2021/03/06 08:01:22;;;;;;;9.55;6.40;;;;;;;7.43;100.00;101935.16;4923314;29;20095;-77
2021/03/06 08:04:35;;;;;;;13.43;7.47;;;;;;;7.56;100.00;101944.91;4908925;29;20114;-75
2021/03/06 08:07:36;;;;;;;10.45;6.53;;;;;;;7.15;100.00;101946.88;4909133;29;20083;-75
2021/03/06 08:10:25;;;;;;;10.68;6.18;;;;;;;7.09;100.00;101944.19;4921694;29;20453;-74
2021/03/06 08:13:36;;;;;;;11.85;6.70;;;;;;;7.44;100.00;101948.19;4921307;29;20032;-74
2021/03/06 08:19:11;;;;;;;19.58;7.47;;;;;;;7.45;100.00;101951.69;4921318;29;20461;-74
2021/03/06 08:22:14;;;;;;;14.25;7.82;;;;;;;7.67;100.00;101958.97;4906812;29;20060;-73
2021/03/06 08:25:15;;;;;;;11.05;6.57;;;;;;;7.44;100.00;101955.16;4920955;29;20107;-74
2021/03/06 08:28:24;;;;;;;8.10;5.10;;;;;;;7.15;100.00;101964.25;4907038;29;20469;-74
2021/03/06 08:31:38;;;;;;;9.43;5.55;;;;;;;7.57;100.00;101963.19;4920898;29;20032;-73
2021/03/06 08:34:55;;;;;;;9.68;5.63;;;;;;;7.10;100.00;101985.00;4908060;29;20095;-73
2021/03/06 08:37:50;;;;;;;8.38;5.70;;;;;;;6.90;100.00;101993.31;4920936;29;20035;-75
2021/03/06 08:41:03;;;;;;;8.02;5.70;;;;;;;6.59;100.00;102004.06;4906924;29;20059;-76
2021/03/06 08:43:55;;;;;;;8.55;5.80;;;;;;;6.22;100.00;101999.84;4907632;29;20043;-75
2021/03/06 08:46:42;;;;;;;9.45;6.28;;;;;;;6.02;100.00;102019.34;4920051;29;20043;-76
2021/03/06 08:49:29;;;;;;;10.27;6.25;;;;;;;6.06;100.00;102021.19;4906846;29;20039;-73
2021/03/06 08:52:15;;;;;;;9.63;6.03;;;;;;;5.73;100.00;102027.31;4907145;29;20032;-74
2021/03/06 08:55:03;;;;;;;11.02;6.68;;;;;;;5.30;100.00;102039.31;4919265;29;20028;-72
2021/03/06 08:57:48;;;;;;;10.95;7.05;;;;;;;5.49;100.00;102045.81;4920407;29;20024;-74
2021/03/06 09:00:40;;;;;;;8.50;6.43;;;;;;;5.72;100.00;102054.16;4907192;29;20028;-74
2021/03/06 09:03:27;;;;;;;9.70;7.15;;;;;;;5.64;100.00;102055.72;4943826;23;20064;-72
2021/03/06 09:06:13;;;;;;;10.85;7.50;;;;;;;5.77;100.00;102061.22;4899981;29;20032;-73
2021/03/06 09:08:58;;;;;;;14.05;9.02;;;;;;;5.91;100.00;102070.25;4901715;29;20120;-73
2021/03/06 09:11:56;;;;;;;11.88;8.10;;;;;;;6.18;100.00;102073.47;4886733;29;20038;-74
2021/03/06 09:14:42;;;;;;;11.10;7.57;;;;;;;5.70;100.00;102071.47;4900916;29;20036;-74
2021/03/06 09:17:28;;;;;;;9.05;7.30;;;;;;;5.79;100.00;102079.47;4900848;29;20063;-74
2021/03/06 09:20:14;;;;;;;9.15;6.90;;;;;;;5.35;100.00;102086.22;4900226;29;20355;-74
2021/03/06 09:23:00;;;;;;;10.85;7.68;;;;;;;5.82;100.00;102090.00;4900990;29;20028;-75
2021/03/06 09:25:45;;;;;;;14.30;8.95;;;;;;;5.76;100.00;102088.09;4900104;29;20043;-74
2021/03/06 09:28:32;;;;;;;16.02;10.13;;;;;;;5.50;100.00;102099.56;4899881;29;20354;-75
2021/03/06 09:31:28;;;;;;;12.02;8.77;;;;;;;5.34;100.00;102100.91;4901109;29;20112;-73
2021/03/06 09:34:13;;;;;;;13.85;10.35;;;;;;;5.54;100.00;102108.34;4900894;29;20040;-72
2021/03/06 09:37:12;;;;;;;13.45;9.13;;;;;;;5.66;100.00;102117.28;4901491;29;20040;-74
2021/03/06 09:40:17;;;;;;;12.32;9.23;;;;;;;5.04;100.00;102118.31;4900101;29;20370;-73
2021/03/06 09:43:03;;;;;;;13.82;9.55;;;;;;;4.97;100.00;102116.38;4899292;29;20466;-75
2021/03/06 09:45:49;;;;;;;16.17;10.52;;;;;;;4.45;100.00;102118.31;4899582;29;20028;-73
2021/03/06 09:48:34;;;;;;;17.00;9.55;;;;;;;4.70;100.00;102119.88;4899148;29;20447;-73
2021/03/06 09:51:22;;;;;;;15.52;10.43;;;;;;;5.02;100.00;102129.47;4899957;29;20111;-74
2021/03/06 09:54:09;;;;;;;14.68;9.95;;;;;;;5.04;100.00;102141.69;4899019;29;20060;-75
2021/03/06 09:56:59;;;;;;;15.98;9.38;;;;;;;4.43;100.00;102147.66;4899367;29;20429;-74
2021/03/06 09:59:45;;;;;;;16.98;10.50;;;;;;;4.14;100.00;102156.28;4899276;29;20342;-74
2021/03/06 10:02:31;;;;;;;14.30;9.70;;;;;;;4.19;100.00;102159.88;4899201;29;20092;-74
2021/03/06 10:05:24;;;;;;;15.05;9.95;;;;;;;4.45;100.00;102158.94;4898460;29;20037;-74
2021/03/06 10:08:09;;;;;;;20.38;12.80;;;;;;;4.53;100.00;102167.84;4900205;29;20108;-74
2021/03/06 10:10:57;;;;;;;24.42;13.43;;;;;;;4.21;100.00;102169.47;4898946;29;20462;-74
2021/03/06 10:13:51;;;;;;;17.13;11.57;;;;;;;4.38;100.00;102176.06;4900808;29;20032;-73
2021/03/06 10:16:52;;;;;;;22.17;12.90;;;;;;;4.28;100.00;102184.41;4898857;29;20031;-75
2021/03/06 10:19:46;;;;;;;22.80;13.48;;;;;;;4.49;100.00;102178.97;4899198;29;20362;-73
2021/03/06 10:22:43;;;;;;;18.75;12.45;;;;;;;4.39;100.00;102195.09;4899605;29;20024;-74
2021/03/06 10:25:28;;;;;;;18.08;12.98;;;;;;;3.47;100.00;102205.03;4899317;29;20044;-74
2021/03/06 10:28:14;;;;;;;22.20;14.25;;;;;;;3.92;100.00;102203.06;4898542;29;20035;-74
2021/03/06 10:31:00;;;;;;;27.02;16.48;;;;;;;3.77;100.00;102213.81;4898907;29;20045;-73
2021/03/06 10:33:46;;;;;;;32.03;17.80;;;;;;;3.61;100.00;102214.13;4899000;29;20319;-73
2021/03/06 10:36:31;;;;;;;32.20;16.83;;;;;;;3.76;100.00;102225.03;4899507;29;20111;-74
2021/03/06 10:39:19;;;;;;;18.85;11.85;;;;;;;3.64;100.00;102219.44;4898936;29;20024;-73
2021/03/06 10:42:05;;;;;;;16.20;11.95;;;;;;;3.57;100.00;102213.97;4898267;29;20422;-73
2021/03/06 10:44:50;;;;;;;25.42;14.18;;;;;;;3.72;100.00;102217.09;4898921;29;20033;-74
2021/03/06 10:47:50;;;;;;;16.58;12.00;;;;;;;3.90;100.00;102222.91;4898119;29;20473;-73
2021/03/06 10:50:39;;;;;;;40.85;19.65;;;;;;;3.10;100.00;102232.13;4899718;29;20525;-73
2021/03/06 10:53:25;;;;;;;35.60;19.02;;;;;;;3.37;100.00;102230.53;4885586;29;20036;-73
2021/03/06 10:56:19;;;;;;;32.00;14.70;;;;;;;3.72;100.00;102238.72;4899316;29;20040;-73
2021/03/06 10:59:06;;;;;;;33.30;16.60;;;;;;;3.55;100.00;102236.38;4898640;29;20060;-73
2021/03/06 11:01:52;;;;;;;23.75;13.35;;;;;;;3.69;100.00;102229.94;4885587;29;20037;-74
2021/03/06 11:04:38;;;;;;;17.38;10.25;;;;;;;3.45;100.00;102242.94;4899501;29;20044;-74
2021/03/06 11:07:28;;;;;;;20.13;11.52;;;;;;;3.54;100.00;102232.03;4898562;29;20029;-73
2021/03/06 11:10:16;;;;;;;20.58;12.13;;;;;;;3.81;100.00;102233.84;4886100;29;20124;-74
2021/03/06 11:13:02;;;;;;;22.17;13.70;;;;;;;3.93;100.00;102249.81;4898122;29;20025;-74
2021/03/06 11:15:53;;;;;;;24.75;13.60;;;;;;;3.95;100.00;102236.91;4900042;29;20119;-74
2021/03/06 11:18:41;;;;;;;21.00;12.13;;;;;;;3.61;100.00;102236.56;4897750;29;20028;-73
2021/03/06 11:21:27;;;;;;;21.00;12.00;;;;;;;4.05;100.00;102241.53;4899465;29;20032;-74
2021/03/06 11:24:13;;;;;;;18.50;10.10;;;;;;;3.83;100.00;102231.31;4897907;29;20047;-74
2021/03/06 11:26:59;;;;;;;15.57;10.07;;;;;;;3.58;100.00;102234.75;4899547;29;20029;-74
2021/03/06 11:29:45;;;;;;;27.25;12.50;;;;;;;3.48;100.00;102243.03;4897948;29;20402;-74
2021/03/06 11:32:30;;;;;;;19.80;10.82;;;;;;;3.46;100.00;102236.91;4897903;29;20068;-74
2021/03/06 11:35:17;;;;;;;30.17;16.05;;;;;;;3.49;100.00;102238.72;4899142;29;20025;-73
2021/03/06 11:38:04;;;;;;;21.95;12.95;;;;;;;3.71;100.00;102241.25;4898249;29;20158;-73
2021/03/06 11:40:52;;;;;;;19.75;13.05;;;;;;;3.90;100.00;102239.31;4884953;29;20028;-74
2021/03/06 11:43:38;;;;;;;21.77;11.45;;;;;;;4.04;100.00;102248.47;4898284;29;20373;-74
2021/03/06 11:46:24;;;;;;;18.13;12.48;;;;;;;3.86;100.00;102240.03;4899087;29;20033;-73
2021/03/06 11:49:10;;;;;;;18.40;13.07;;;;;;;3.73;100.00;102244.75;4899331;29;20036;-73
2021/03/06 11:51:55;;;;;;;19.48;12.30;;;;;;;3.77;100.00;102246.63;4897749;29;20365;-74
2021/03/06 11:54:47;;;;;;;17.60;11.38;;;;;;;3.82;100.00;102266.69;4897492;29;20433;-73
2021/03/06 11:57:33;;;;;;;15.27;10.75;;;;;;;4.14;100.00;102254.84;4885078;29;20088;-73
2021/03/06 12:00:22;;;;;;;14.85;9.60;;;;;;;3.66;100.00;102264.41;4898090;29;20434;-74
2021/03/06 12:03:08;;;;;;;16.55;10.98;;;;;;;3.94;100.00;102261.06;4897534;29;20124;-75
2021/03/06 12:05:54;;;;;;;14.55;10.73;;;;;;;3.99;100.00;102270.72;4897527;29;20088;-73
2021/03/06 12:08:40;;;;;;;18.67;12.13;;;;;;;4.27;100.00;102273.41;4897714;29;20028;-74
2021/03/06 12:11:26;;;;;;;22.77;13.77;;;;;;;4.02;100.00;102276.03;4898924;29;20339;-73
2021/03/06 12:14:11;;;;;;;20.98;12.98;;;;;;;4.10;100.00;102269.38;4885779;29;20032;-75
2021/03/06 12:16:57;;;;;;;14.18;9.60;;;;;;;3.76;100.00;102274.28;4898603;29;20526;-72
2021/03/06 12:19:43;;;;;;;22.67;12.18;;;;;;;3.88;100.00;102268.63;4897757;29;20111;-74
2021/03/06 12:22:29;;;;;;;19.48;11.25;;;;;;;3.98;100.00;102281.94;4884686;29;20033;-73
2021/03/06 12:25:16;;;;;;;24.48;13.30;;;;;;;4.40;100.00;102280.78;4885324;29;20036;-74
2021/03/06 12:28:02;;;;;;;17.55;10.77;;;;;;;4.24;100.00;102277.63;4898407;29;20036;-74
2021/03/06 12:30:48;;;;;;;18.55;11.25;;;;;;;4.33;100.00;102285.69;4900963;29;20024;-74
2021/03/06 12:33:33;;;;;;;22.20;10.13;;;;;;;3.98;100.00;102294.03;4889168;29;20047;-74
2021/03/06 12:36:19;;;;;;;18.73;11.30;;;;;;;4.02;100.00;102289.00;4900689;29;20137;-73
2021/03/06 12:39:06;;;;;;;23.45;12.02;;;;;;;3.61;100.00;102284.09;4900816;29;20028;-73
2021/03/06 12:41:53;;;;;;;16.55;11.77;;;;;;;3.96;100.00;102282.72;4900402;29;20032;-74
2021/03/06 12:44:38;;;;;;;21.05;12.90;;;;;;;4.30;100.00;102283.91;4901117;29;20495;-73
2021/03/06 12:47:24;;;;;;;18.02;11.43;;;;;;;4.14;100.00;102293.75;4887580;29;20071;-74
2021/03/06 12:50:11;;;;;;;16.85;11.57;;;;;;;4.29;100.00;102299.41;4888058;29;20092;-74
2021/03/06 12:52:56;;;;;;;16.30;10.90;;;;;;;4.64;100.00;102306.63;4887566;29;20131;-74
2021/03/06 12:55:43;;;;;;;14.05;9.80;;;;;;;3.92;100.00;102297.31;4901949;29;20063;-73